createdAt,value
2019-04-28T13:44:49.825Z,53.06
2019-04-28T13:47:22.036Z,53.18
2019-04-28T13:49:54.660Z,54.17
2019-04-28T13:52:25.483Z,52.60
2019-04-28T13:54:58.463Z,54.04
2019-04-28T13:57:29.364Z,54.37
2019-04-28T14:00:04.596Z,54.46
2019-04-28T14:02:52.039Z,55.33
2019-04-28T14:05:41.303Z,56.29
2019-04-28T14:08:13.505Z,55.54
2019-04-28T14:10:45.333Z,55.54
2019-04-28T14:13:16.608Z,55.36
2019-04-28T14:15:48.513Z,56.04
2019-04-28T14:18:20.479Z,55.89
2019-04-28T14:20:53.152Z,55.28
2019-04-28T14:23:23.886Z,55.58
2019-04-28T14:25:54.861Z,55.66
2019-04-28T14:28:26.089Z,55.86
2019-04-28T14:31:00.685Z,55.34
2019-04-28T14:33:32.580Z,54.96
2019-04-28T14:36:03.366Z,55.08
2019-04-28T14:38:34.508Z,55.70
2019-04-28T14:41:07.247Z,56.94
2019-04-28T14:43:39.938Z,57.20
2019-04-28T14:46:11.612Z,56.36
2019-04-28T14:48:43.800Z,58.30
2019-04-28T14:51:14.803Z,59.79
2019-04-28T14:53:45.500Z,60.75
2019-04-28T14:56:16.140Z,60.26
2019-04-28T14:58:47.486Z,61.19
2019-04-28T15:01:32.126Z,62.07
2019-04-28T15:04:04.647Z,63.19
2019-04-28T15:06:40.017Z,65.17
2019-04-28T15:09:29.012Z,66.69
2019-04-28T15:12:01.608Z,64.99
2019-04-28T15:14:32.695Z,67.82
2019-04-28T15:17:03.744Z,66.77
2019-04-28T15:19:34.560Z,68.87
2019-04-28T15:24:41.923Z,70.34
2019-04-28T15:27:12.929Z,72.08
2019-04-28T15:29:43.767Z,71.63
2019-04-28T15:32:15.046Z,71.33
2019-04-28T15:34:45.880Z,71.64
2019-04-28T15:37:16.640Z,71.96
2019-04-28T15:39:47.670Z,73.37
2019-04-28T15:42:18.646Z,72.63
2019-04-28T15:44:49.884Z,73.53
2019-04-28T15:47:20.882Z,73.55
2019-04-28T15:49:53.980Z,74.34
2019-04-28T15:52:25.537Z,74.14
2019-04-28T15:54:56.831Z,74.53
2019-04-28T15:57:27.850Z,75.18
2019-04-28T16:00:00.156Z,75.80
2019-04-28T16:02:31.241Z,76.27
2019-04-28T16:05:02.402Z,76.94
2019-04-28T16:07:33.754Z,75.97
2019-04-28T16:10:06.728Z,76.04
2019-04-28T16:12:38.374Z,76.49
2019-04-28T16:15:09.880Z,75.96
2019-04-28T16:17:42.247Z,77.34
2019-04-28T16:20:14.390Z,77.76
2019-04-28T16:22:45.358Z,77.42
2019-04-28T16:25:16.593Z,78.27
2019-04-28T16:27:48.255Z,78.29
2019-04-28T16:30:19.836Z,79.02
2019-04-28T16:32:53.464Z,79.00
2019-04-28T16:35:25.393Z,79.40
2019-04-28T16:37:56.211Z,79.65
2019-04-28T16:40:29.046Z,79.97
2019-04-28T16:43:07.899Z,80.54
2019-04-28T16:45:40.326Z,80.84
2019-04-28T16:48:14.152Z,81.00
2019-04-28T16:50:45.836Z,81.05
2019-04-28T16:53:17.271Z,81.51
2019-04-28T16:55:50.151Z,81.79
2019-04-28T16:58:31.799Z,81.21
2019-04-28T17:01:12.340Z,81.06
2019-04-28T17:03:43.963Z,81.81
2019-04-28T17:06:14.945Z,82.04
2019-04-28T17:08:46.179Z,81.97
2019-04-28T17:11:17.330Z,82.32
2019-04-28T17:13:48.308Z,82.54
2019-04-28T17:16:19.877Z,82.58
2019-04-28T17:18:50.793Z,82.64
2019-04-28T17:21:22.328Z,82.62
2019-04-28T17:23:54.555Z,83.26
2019-04-28T17:26:25.595Z,82.90
2019-04-28T17:28:56.643Z,83.35
2019-04-28T17:31:28.107Z,83.42
2019-04-28T17:33:59.622Z,83.47
2019-04-28T17:36:30.570Z,84.16
2019-04-28T17:39:01.546Z,84.08
2019-04-28T17:41:35.017Z,84.30
2019-04-28T17:44:06.256Z,84.53
2019-04-28T17:46:37.340Z,84.72
2019-04-28T17:49:08.949Z,84.92
2019-04-28T17:51:41.492Z,85.15
2019-04-28T17:54:12.385Z,85.10
2019-04-28T17:56:43.776Z,85.35
2019-04-28T17:59:16.313Z,85.63
2019-04-28T18:01:53.809Z,85.85
2019-04-28T18:04:35.890Z,86.07
2019-04-28T18:07:10.576Z,85.93
2019-04-28T18:09:43.386Z,86.10
2019-04-28T18:12:14.578Z,86.17
2019-04-28T18:14:47.698Z,86.28
2019-04-28T18:17:23.325Z,85.98
2019-04-28T18:19:54.732Z,86.06
2019-04-28T18:22:26.237Z,86.06
2019-04-28T18:24:58.587Z,86.23
2019-04-28T18:27:30.387Z,86.07
2019-04-28T18:30:01.834Z,86.18
2019-04-28T18:32:41.858Z,86.15
2019-04-28T18:35:15.012Z,86.21
2019-04-28T18:38:05.794Z,86.33
2019-04-28T18:40:45.008Z,86.53
2019-04-28T18:43:35.908Z,86.90
2019-04-28T18:46:06.990Z,86.91
2019-04-28T18:48:39.424Z,87.14
2019-04-28T18:51:11.159Z,87.19
2019-04-28T18:53:44.523Z,87.24
2019-04-28T18:56:14.760Z,86.97
2019-04-28T18:58:46.447Z,87.22
2019-04-28T19:01:36.872Z,87.42
2019-04-28T19:04:09.250Z,87.45
2019-04-28T19:06:40.503Z,87.45
2019-04-28T19:09:19.200Z,87.49
2019-04-28T19:12:08.397Z,87.57
2019-04-28T19:14:41.020Z,87.91
2019-04-28T19:17:17.695Z,87.93
2019-04-28T19:19:49.626Z,87.96
2019-04-28T19:22:20.505Z,87.99
2019-04-28T19:24:53.352Z,87.75
2019-04-28T19:27:24.592Z,87.79
2019-04-28T19:29:56.478Z,87.92
2019-04-28T19:32:28.258Z,87.76
2019-04-28T19:35:00.184Z,87.72
2019-04-28T19:37:32.246Z,87.56
2019-04-28T19:40:03.433Z,87.82
2019-04-28T19:42:36.054Z,87.81
2019-04-28T19:45:12.010Z,87.90
2019-04-28T19:47:42.962Z,87.87
2019-04-28T19:50:14.786Z,87.36
2019-04-28T19:52:46.150Z,87.76
2019-04-28T19:55:20.135Z,87.43
2019-04-28T19:58:11.317Z,87.73
2019-04-28T20:00:45.099Z,87.75
2019-04-28T20:03:17.953Z,87.55
2019-04-28T20:05:49.104Z,87.80
2019-04-28T20:08:21.384Z,88.06
2019-04-28T20:10:52.418Z,87.89
2019-04-28T20:13:23.210Z,88.15
2019-04-28T20:15:54.134Z,88.37
2019-04-28T20:18:24.937Z,88.59
2019-04-28T20:20:55.748Z,88.59
2019-04-28T20:23:26.393Z,88.57
2019-04-28T20:25:57.192Z,88.71
2019-04-28T20:28:28.099Z,88.88
2019-04-28T20:30:59.147Z,88.75
2019-04-28T20:33:30.222Z,88.88
2019-04-28T20:36:03.081Z,88.91
2019-04-28T20:38:34.452Z,88.64
2019-04-28T20:41:09.547Z,88.82
2019-04-28T20:43:40.464Z,88.92
2019-04-28T20:46:11.311Z,88.93
2019-04-28T20:48:42.022Z,89.25
2019-04-28T20:51:12.807Z,89.04
2019-04-28T20:53:44.443Z,89.09
2019-04-28T20:56:15.868Z,89.13
2019-04-28T20:58:47.042Z,89.08
2019-04-28T21:01:19.070Z,89.30
2019-04-28T21:03:50.152Z,89.21
2019-04-28T21:06:20.919Z,89.24
2019-04-28T21:08:53.357Z,89.25
2019-04-28T21:11:24.731Z,89.18
2019-04-28T21:13:55.618Z,89.28
2019-04-28T21:16:27.310Z,89.32
2019-04-28T21:18:58.814Z,89.39
2019-04-28T21:21:29.862Z,89.37
2019-04-28T21:24:01.064Z,89.30
2019-04-28T21:26:31.930Z,89.28
2019-04-28T21:29:02.979Z,89.50
2019-04-28T21:31:33.541Z,89.47
2019-04-28T21:34:04.393Z,89.56
2019-04-28T21:36:35.340Z,89.64
2019-04-28T21:39:09.047Z,89.58
2019-04-28T21:41:41.134Z,89.66
2019-04-28T21:44:30.884Z,89.67
2019-04-28T21:47:21.940Z,89.75
2019-04-28T21:49:53.006Z,89.76
2019-04-28T21:52:24.304Z,89.70
2019-04-28T21:54:56.282Z,89.75
2019-04-28T21:57:27.384Z,89.86
2019-04-28T21:59:58.179Z,89.89
2019-04-28T22:02:31.840Z,89.91
2019-04-28T22:05:03.092Z,90.04
2019-04-28T22:07:33.929Z,89.99
2019-04-28T22:10:06.921Z,89.94
2019-04-28T22:12:37.782Z,89.99
2019-04-28T22:15:08.818Z,90.04
2019-04-28T22:17:39.860Z,90.04
2019-04-28T22:20:10.680Z,90.12
2019-04-28T22:22:41.809Z,90.11
2019-04-28T22:25:14.408Z,90.14
2019-04-28T22:27:45.220Z,90.36
2019-04-28T22:30:16.307Z,90.26
2019-04-28T22:32:47.436Z,90.22
2019-04-28T22:35:18.284Z,90.29
2019-04-28T22:37:49.708Z,90.33
2019-04-28T22:40:20.600Z,90.21
2019-04-28T22:42:51.328Z,90.21
2019-04-28T22:45:22.395Z,90.25
2019-04-28T22:47:53.408Z,90.27
2019-04-28T22:50:42.390Z,90.06
2019-04-28T22:53:15.568Z,89.92
2019-04-28T22:55:53.202Z,90.05
2019-04-28T22:58:26.048Z,90.13
2019-04-28T23:01:15.666Z,90.16
2019-04-28T23:03:57.518Z,90.08
2019-04-28T23:06:29.794Z,89.95
2019-04-28T23:09:01.265Z,90.09
2019-04-28T23:11:34.221Z,90.13
2019-04-28T23:14:05.221Z,89.92
2019-04-28T23:16:36.257Z,90.00
2019-04-28T23:19:08.941Z,89.97
2019-04-28T23:21:44.296Z,89.91
2019-04-28T23:24:15.586Z,89.94
2019-04-28T23:26:46.670Z,89.87
2019-04-28T23:29:18.119Z,90.03
2019-04-28T23:31:49.194Z,90.08
2019-04-28T23:34:20.047Z,89.98
2019-04-28T23:36:50.928Z,90.22
2019-04-28T23:39:22.495Z,90.23
2019-04-28T23:42:04.041Z,90.15
2019-04-28T23:44:34.620Z,90.19
2019-04-28T23:47:07.391Z,90.50
2019-04-28T23:49:38.548Z,90.76
2019-04-28T23:52:27.312Z,90.80
2019-04-28T23:54:59.576Z,91.03
2019-04-28T23:57:30.317Z,91.18
